Terminal Aerodrome Forecast
Issued by NWS Wilmington, OH

Current Version | Previous Version | Graphics & Text | Print | Product List | Glossary On
Versions: 1 2 3 4 5 6 7 8 9 10 11 12 13 14 15 16 17 18
538
FTUS41 KILN 190157 AAB
TAFILN
TAF AMD
KILN 190157Z 1902/1924 26022G32KT P6SM -SHRA OVC015
      TEMPO 1902/1905 2SM -SHRA BR OVC009
     FM190500 31020G30KT P6SM OVC012
     FM191200 30013G22KT P6SM OVC025
     FM192100 29013G21KT P6SM BKN035
     FM192300 28011KT P6SM SCT250=

USA.gov is the U.S. government's official web portal to all federal, state and local government web resources and services.